sensor_id;sensor_type;location;lat;lon;timestamp;P1;durP1;ratioP1;P2;durP2;ratioP2
6852;SDS011;3465;42.144;24.722;2022-07-22T00:01:49;8.48;;;3.53;;
6852;SDS011;3465;42.144;24.722;2022-07-22T00:04:15;8.25;;;3.65;;
6852;SDS011;3465;42.144;24.722;2022-07-22T00:06:41;5.90;;;3.92;;
6852;SDS011;3465;42.144;24.722;2022-07-22T00:09:07;7.10;;;3.53;;
6852;SDS011;3465;42.144;24.722;2022-07-22T00:11:32;6.07;;;3.70;;
6852;SDS011;3465;42.144;24.722;2022-07-22T00:13:57;8.82;;;3.30;;
6852;SDS011;3465;42.144;24.722;2022-07-22T00:16:23;8.45;;;3.65;;
6852;SDS011;3465;42.144;24.722;2022-07-22T00:18:48;5.57;;;3.08;;
6852;SDS011;3465;42.144;24.722;2022-07-22T00:21:14;7.53;;;3.83;;
6852;SDS011;3465;42.144;24.722;2022-07-22T00:23:39;7.65;;;3.80;;
6852;SDS011;3465;42.144;24.722;2022-07-22T00:26:05;6.82;;;3.20;;
6852;SDS011;3465;42.144;24.722;2022-07-22T00:28:30;7.50;;;3.85;;
6852;SDS011;3465;42.144;24.722;2022-07-22T00:30:56;5.68;;;3.47;;
6852;SDS011;3465;42.144;24.722;2022-07-22T00:33:21;8.60;;;3.80;;
6852;SDS011;3465;42.144;24.722;2022-07-22T00:35:47;8.70;;;3.67;;
6852;SDS011;3465;42.144;24.722;2022-07-22T00:38:12;5.15;;;3.70;;
6852;SDS011;3465;42.144;24.722;2022-07-22T00:40:38;8.77;;;4.10;;
6852;SDS011;3465;42.144;24.722;2022-07-22T00:43:03;8.50;;;3.90;;
6852;SDS011;3465;42.144;24.722;2022-07-22T00:45:29;9.63;;;4.50;;
6852;SDS011;3465;42.144;24.722;2022-07-22T00:47:54;10.60;;;4.30;;
6852;SDS011;3465;42.144;24.722;2022-07-22T00:50:20;9.32;;;4.10;;
6852;SDS011;3465;42.144;24.722;2022-07-22T00:52:46;8.77;;;4.10;;
6852;SDS011;3465;42.144;24.722;2022-07-22T00:55:12;8.25;;;4.53;;
6852;SDS011;3465;42.144;24.722;2022-07-22T00:57:38;9.55;;;4.45;;
6852;SDS011;3465;42.144;24.722;2022-07-22T01:00:05;7.97;;;4.15;;
6852;SDS011;3465;42.144;24.722;2022-07-22T01:02:34;9.95;;;4.38;;
6852;SDS011;3465;42.144;24.722;2022-07-22T01:04:59;10.57;;;4.43;;
6852;SDS011;3465;42.144;24.722;2022-07-22T01:07:24;7.05;;;4.22;;
6852;SDS011;3465;42.144;24.722;2022-07-22T01:09:50;9.15;;;3.97;;
6852;SDS011;3465;42.144;24.722;2022-07-22T01:12:15;8.00;;;4.07;;
6852;SDS011;3465;42.144;24.722;2022-07-22T01:14:41;8.10;;;4.35;;
6852;SDS011;3465;42.144;24.722;2022-07-22T01:17:07;11.30;;;4.90;;
6852;SDS011;3465;42.144;24.722;2022-07-22T01:19:33;7.05;;;4.00;;
6852;SDS011;3465;42.144;24.722;2022-07-22T01:22:00;7.38;;;4.53;;
6852;SDS011;3465;42.144;24.722;2022-07-22T01:24:26;9.60;;;4.07;;
6852;SDS011;3465;42.144;24.722;2022-07-22T01:26:51;10.15;;;4.63;;
6852;SDS011;3465;42.144;24.722;2022-07-22T01:29:17;8.57;;;3.95;;
6852;SDS011;3465;42.144;24.722;2022-07-22T01:31:42;8.15;;;4.55;;
6852;SDS011;3465;42.144;24.722;2022-07-22T01:34:08;6.72;;;3.90;;
6852;SDS011;3465;42.144;24.722;2022-07-22T01:36:33;10.30;;;4.43;;
6852;SDS011;3465;42.144;24.722;2022-07-22T01:38:59;14.88;;;4.32;;
6852;SDS011;3465;42.144;24.722;2022-07-22T01:41:24;9.80;;;3.72;;
6852;SDS011;3465;42.144;24.722;2022-07-22T01:43:50;9.82;;;4.18;;
6852;SDS011;3465;42.144;24.722;2022-07-22T01:46:15;13.35;;;4.70;;
6852;SDS011;3465;42.144;24.722;2022-07-22T01:48:41;14.07;;;4.72;;
6852;SDS011;3465;42.144;24.722;2022-07-22T01:51:07;6.80;;;4.40;;
6852;SDS011;3465;42.144;24.722;2022-07-22T01:53:33;9.85;;;4.38;;
6852;SDS011;3465;42.144;24.722;2022-07-22T01:55:58;8.55;;;4.45;;
6852;SDS011;3465;42.144;24.722;2022-07-22T01:58:24;11.63;;;4.05;;
6852;SDS011;3465;42.144;24.722;2022-07-22T02:00:50;9.68;;;4.55;;
6852;SDS011;3465;42.144;24.722;2022-07-22T02:03:15;7.35;;;4.53;;
6852;SDS011;3465;42.144;24.722;2022-07-22T02:05:41;10.13;;;4.57;;
6852;SDS011;3465;42.144;24.722;2022-07-22T02:08:08;6.97;;;4.32;;
6852;SDS011;3465;42.144;24.722;2022-07-22T02:10:35;7.05;;;4.45;;
6852;SDS011;3465;42.144;24.722;2022-07-22T02:13:01;7.00;;;4.22;;
6852;SDS011;3465;42.144;24.722;2022-07-22T02:15:26;10.45;;;4.40;;
6852;SDS011;3465;42.144;24.722;2022-07-22T02:17:52;13.30;;;5.00;;
6852;SDS011;3465;42.144;24.722;2022-07-22T02:20:19;7.40;;;3.97;;
6852;SDS011;3465;42.144;24.722;2022-07-22T02:22:44;13.25;;;4.97;;
6852;SDS011;3465;42.144;24.722;2022-07-22T02:25:10;9.10;;;5.13;;
6852;SDS011;3465;42.144;24.722;2022-07-22T02:27:36;9.68;;;4.80;;
6852;SDS011;3465;42.144;24.722;2022-07-22T02:30:03;8.75;;;4.70;;
6852;SDS011;3465;42.144;24.722;2022-07-22T02:32:30;10.88;;;4.72;;
6852;SDS011;3465;42.144;24.722;2022-07-22T02:34:56;9.02;;;4.50;;
6852;SDS011;3465;42.144;24.722;2022-07-22T02:37:21;11.27;;;4.82;;
6852;SDS011;3465;42.144;24.722;2022-07-22T02:39:47;10.05;;;4.82;;
6852;SDS011;3465;42.144;24.722;2022-07-22T02:42:12;9.95;;;5.20;;
6852;SDS011;3465;42.144;24.722;2022-07-22T02:44:39;7.45;;;4.47;;
6852;SDS011;3465;42.144;24.722;2022-07-22T02:47:05;14.57;;;6.03;;
6852;SDS011;3465;42.144;24.722;2022-07-22T02:49:30;9.73;;;5.20;;
6852;SDS011;3465;42.144;24.722;2022-07-22T02:51:56;12.13;;;5.40;;
6852;SDS011;3465;42.144;24.722;2022-07-22T02:54:21;9.80;;;5.10;;
6852;SDS011;3465;42.144;24.722;2022-07-22T02:56:47;9.00;;;5.63;;
6852;SDS011;3465;42.144;24.722;2022-07-22T02:59:12;10.30;;;5.55;;
6852;SDS011;3465;42.144;24.722;2022-07-22T03:01:37;20.55;;;6.25;;
6852;SDS011;3465;42.144;24.722;2022-07-22T03:04:03;10.73;;;6.38;;
6852;SDS011;3465;42.144;24.722;2022-07-22T03:06:29;11.70;;;6.38;;
6852;SDS011;3465;42.144;24.722;2022-07-22T03:08:54;12.93;;;6.45;;
6852;SDS011;3465;42.144;24.722;2022-07-22T03:11:19;18.95;;;7.47;;
6852;SDS011;3465;42.144;24.722;2022-07-22T03:13:45;13.68;;;6.55;;
6852;SDS011;3465;42.144;24.722;2022-07-22T03:16:10;15.18;;;7.13;;
6852;SDS011;3465;42.144;24.722;2022-07-22T03:18:36;10.68;;;6.72;;
6852;SDS011;3465;42.144;24.722;2022-07-22T03:21:01;11.88;;;6.75;;
6852;SDS011;3465;42.144;24.722;2022-07-22T03:23:27;13.52;;;6.75;;
6852;SDS011;3465;42.144;24.722;2022-07-22T03:25:52;14.02;;;6.95;;
6852;SDS011;3465;42.144;24.722;2022-07-22T03:28:17;11.57;;;6.60;;
6852;SDS011;3465;42.144;24.722;2022-07-22T03:30:43;10.68;;;6.15;;
6852;SDS011;3465;42.144;24.722;2022-07-22T03:33:08;15.70;;;6.93;;
6852;SDS011;3465;42.144;24.722;2022-07-22T03:35:34;13.77;;;6.22;;
6852;SDS011;3465;42.144;24.722;2022-07-22T03:37:59;11.18;;;6.57;;
6852;SDS011;3465;42.144;24.722;2022-07-22T03:40:25;13.73;;;7.10;;
6852;SDS011;3465;42.144;24.722;2022-07-22T03:42:50;13.18;;;6.55;;
6852;SDS011;3465;42.144;24.722;2022-07-22T03:45:16;11.60;;;6.50;;
6852;SDS011;3465;42.144;24.722;2022-07-22T03:47:41;14.48;;;7.18;;
6852;SDS011;3465;42.144;24.722;2022-07-22T03:50:07;13.30;;;6.90;;
6852;SDS011;3465;42.144;24.722;2022-07-22T03:52:32;16.63;;;7.78;;
6852;SDS011;3465;42.144;24.722;2022-07-22T03:54:58;13.75;;;7.28;;
6852;SDS011;3465;42.144;24.722;2022-07-22T03:57:23;18.90;;;7.00;;
6852;SDS011;3465;42.144;24.722;2022-07-22T03:59:49;20.23;;;8.98;;
6852;SDS011;3465;42.144;24.722;2022-07-22T04:02:14;20.23;;;8.05;;
6852;SDS011;3465;42.144;24.722;2022-07-22T04:04:39;10.80;;;7.10;;
6852;SDS011;3465;42.144;24.722;2022-07-22T04:07:05;13.55;;;7.18;;
6852;SDS011;3465;42.144;24.722;2022-07-22T04:09:30;17.10;;;8.27;;
6852;SDS011;3465;42.144;24.722;2022-07-22T04:11:56;17.42;;;8.00;;
6852;SDS011;3465;42.144;24.722;2022-07-22T04:14:21;17.77;;;8.23;;
6852;SDS011;3465;42.144;24.722;2022-07-22T04:16:47;16.00;;;8.43;;
6852;SDS011;3465;42.144;24.722;2022-07-22T04:19:12;17.02;;;8.88;;
6852;SDS011;3465;42.144;24.722;2022-07-22T04:21:38;13.60;;;8.52;;
6852;SDS011;3465;42.144;24.722;2022-07-22T04:24:04;19.20;;;7.60;;
6852;SDS011;3465;42.144;24.722;2022-07-22T04:26:31;22.70;;;8.32;;
6852;SDS011;3465;42.144;24.722;2022-07-22T04:28:56;23.17;;;8.63;;
6852;SDS011;3465;42.144;24.722;2022-07-22T04:31:22;18.02;;;7.80;;
6852;SDS011;3465;42.144;24.722;2022-07-22T04:33:47;23.75;;;9.07;;
6852;SDS011;3465;42.144;24.722;2022-07-22T04:36:12;21.35;;;8.55;;
6852;SDS011;3465;42.144;24.722;2022-07-22T04:38:38;15.90;;;7.95;;
6852;SDS011;3465;42.144;24.722;2022-07-22T04:41:03;13.43;;;7.85;;
6852;SDS011;3465;42.144;24.722;2022-07-22T04:43:29;19.77;;;8.38;;
6852;SDS011;3465;42.144;24.722;2022-07-22T04:45:55;18.42;;;8.27;;
6852;SDS011;3465;42.144;24.722;2022-07-22T04:48:20;20.13;;;8.70;;
6852;SDS011;3465;42.144;24.722;2022-07-22T04:50:46;14.13;;;8.05;;
6852;SDS011;3465;42.144;24.722;2022-07-22T04:53:11;20.95;;;8.80;;
6852;SDS011;3465;42.144;24.722;2022-07-22T04:55:37;55.95;;;12.68;;
6852;SDS011;3465;42.144;24.722;2022-07-22T04:58:02;26.75;;;10.05;;
6852;SDS011;3465;42.144;24.722;2022-07-22T05:00:28;32.45;;;10.88;;
6852;SDS011;3465;42.144;24.722;2022-07-22T05:02:53;29.38;;;10.63;;
6852;SDS011;3465;42.144;24.722;2022-07-22T05:05:19;24.52;;;8.98;;
6852;SDS011;3465;42.144;24.722;2022-07-22T05:07:44;20.20;;;9.20;;
6852;SDS011;3465;42.144;24.722;2022-07-22T05:10:10;20.77;;;9.00;;
6852;SDS011;3465;42.144;24.722;2022-07-22T05:12:35;17.75;;;8.65;;
6852;SDS011;3465;42.144;24.722;2022-07-22T05:15:01;25.25;;;9.18;;
6852;SDS011;3465;42.144;24.722;2022-07-22T05:17:27;17.25;;;8.90;;
6852;SDS011;3465;42.144;24.722;2022-07-22T05:19:53;28.30;;;10.88;;
6852;SDS011;3465;42.144;24.722;2022-07-22T05:22:18;27.85;;;9.75;;
6852;SDS011;3465;42.144;24.722;2022-07-22T05:24:43;29.40;;;9.68;;
6852;SDS011;3465;42.144;24.722;2022-07-22T05:27:09;17.35;;;8.80;;
6852;SDS011;3465;42.144;24.722;2022-07-22T05:29:34;22.38;;;9.90;;
6852;SDS011;3465;42.144;24.722;2022-07-22T05:32:00;29.98;;;10.15;;
6852;SDS011;3465;42.144;24.722;2022-07-22T05:34:25;30.33;;;10.88;;
6852;SDS011;3465;42.144;24.722;2022-07-22T05:36:51;27.08;;;10.75;;
6852;SDS011;3465;42.144;24.722;2022-07-22T05:39:16;20.48;;;9.73;;
6852;SDS011;3465;42.144;24.722;2022-07-22T05:41:42;24.05;;;10.07;;
6852;SDS011;3465;42.144;24.722;2022-07-22T05:44:08;27.60;;;10.07;;
6852;SDS011;3465;42.144;24.722;2022-07-22T05:46:33;23.02;;;10.05;;
6852;SDS011;3465;42.144;24.722;2022-07-22T05:48:59;25.08;;;10.27;;
6852;SDS011;3465;42.144;24.722;2022-07-22T05:51:24;22.52;;;9.70;;
6852;SDS011;3465;42.144;24.722;2022-07-22T05:53:50;17.65;;;9.70;;
6852;SDS011;3465;42.144;24.722;2022-07-22T05:56:15;20.45;;;9.60;;
6852;SDS011;3465;42.144;24.722;2022-07-22T05:58:41;21.50;;;9.48;;
6852;SDS011;3465;42.144;24.722;2022-07-22T06:01:08;20.40;;;10.23;;
6852;SDS011;3465;42.144;24.722;2022-07-22T06:03:36;21.52;;;10.40;;
6852;SDS011;3465;42.144;24.722;2022-07-22T06:06:02;23.48;;;10.93;;
6852;SDS011;3465;42.144;24.722;2022-07-22T06:08:29;24.77;;;10.77;;
6852;SDS011;3465;42.144;24.722;2022-07-22T06:10:56;21.63;;;9.50;;
6852;SDS011;3465;42.144;24.722;2022-07-22T06:13:22;23.00;;;10.80;;
6852;SDS011;3465;42.144;24.722;2022-07-22T06:15:47;20.30;;;10.27;;
6852;SDS011;3465;42.144;24.722;2022-07-22T06:18:12;21.92;;;10.52;;
6852;SDS011;3465;42.144;24.722;2022-07-22T06:20:38;25.13;;;10.45;;
6852;SDS011;3465;42.144;24.722;2022-07-22T06:23:03;19.33;;;9.23;;
6852;SDS011;3465;42.144;24.722;2022-07-22T06:25:29;18.33;;;9.90;;
6852;SDS011;3465;42.144;24.722;2022-07-22T06:27:54;22.20;;;9.52;;
6852;SDS011;3465;42.144;24.722;2022-07-22T06:30:20;17.15;;;9.43;;
6852;SDS011;3465;42.144;24.722;2022-07-22T06:32:45;27.60;;;9.45;;
6852;SDS011;3465;42.144;24.722;2022-07-22T06:35:11;23.85;;;9.25;;
6852;SDS011;3465;42.144;24.722;2022-07-22T06:37:36;16.55;;;8.50;;
6852;SDS011;3465;42.144;24.722;2022-07-22T06:40:02;26.48;;;8.70;;
6852;SDS011;3465;42.144;24.722;2022-07-22T06:42:28;18.83;;;8.27;;
6852;SDS011;3465;42.144;24.722;2022-07-22T06:44:53;22.75;;;8.90;;
6852;SDS011;3465;42.144;24.722;2022-07-22T06:47:18;23.75;;;8.57;;
6852;SDS011;3465;42.144;24.722;2022-07-22T06:49:44;15.75;;;8.75;;
6852;SDS011;3465;42.144;24.722;2022-07-22T06:52:09;20.52;;;10.48;;
6852;SDS011;3465;42.144;24.722;2022-07-22T06:54:35;19.02;;;8.00;;
6852;SDS011;3465;42.144;24.722;2022-07-22T06:57:00;16.95;;;8.40;;
6852;SDS011;3465;42.144;24.722;2022-07-22T06:59:25;14.70;;;7.32;;
6852;SDS011;3465;42.144;24.722;2022-07-22T07:01:51;20.27;;;7.13;;
6852;SDS011;3465;42.144;24.722;2022-07-22T07:04:16;10.55;;;6.68;;
6852;SDS011;3465;42.144;24.722;2022-07-22T07:06:43;22.13;;;6.78;;
6852;SDS011;3465;42.144;24.722;2022-07-22T07:09:09;13.25;;;6.50;;
6852;SDS011;3465;42.144;24.722;2022-07-22T07:11:34;14.63;;;7.20;;
6852;SDS011;3465;42.144;24.722;2022-07-22T07:14:00;12.02;;;6.90;;
6852;SDS011;3465;42.144;24.722;2022-07-22T07:16:25;18.88;;;6.78;;
6852;SDS011;3465;42.144;24.722;2022-07-22T07:18:51;15.88;;;6.38;;
6852;SDS011;3465;42.144;24.722;2022-07-22T07:21:16;12.90;;;5.97;;
6852;SDS011;3465;42.144;24.722;2022-07-22T07:23:42;13.93;;;6.15;;
6852;SDS011;3465;42.144;24.722;2022-07-22T07:26:07;11.65;;;5.63;;
6852;SDS011;3465;42.144;24.722;2022-07-22T07:28:33;10.95;;;5.60;;
6852;SDS011;3465;42.144;24.722;2022-07-22T07:30:58;13.00;;;6.13;;
6852;SDS011;3465;42.144;24.722;2022-07-22T07:33:23;9.93;;;6.55;;
6852;SDS011;3465;42.144;24.722;2022-07-22T07:35:49;12.23;;;6.20;;
6852;SDS011;3465;42.144;24.722;2022-07-22T07:38:14;17.23;;;5.97;;
6852;SDS011;3465;42.144;24.722;2022-07-22T07:40:40;11.95;;;5.90;;
6852;SDS011;3465;42.144;24.722;2022-07-22T07:43:05;14.27;;;6.45;;
6852;SDS011;3465;42.144;24.722;2022-07-22T07:47:56;11.68;;;6.25;;
6852;SDS011;3465;42.144;24.722;2022-07-22T07:50:22;10.07;;;5.43;;
6852;SDS011;3465;42.144;24.722;2022-07-22T07:52:47;9.30;;;5.70;;
6852;SDS011;3465;42.144;24.722;2022-07-22T07:55:13;11.82;;;6.07;;
6852;SDS011;3465;42.144;24.722;2022-07-22T07:57:39;11.48;;;5.50;;
6852;SDS011;3465;42.144;24.722;2022-07-22T08:00:08;8.73;;;5.68;;
6852;SDS011;3465;42.144;24.722;2022-07-22T08:02:35;9.93;;;5.28;;
6852;SDS011;3465;42.144;24.722;2022-07-22T08:05:01;16.20;;;6.03;;
6852;SDS011;3465;42.144;24.722;2022-07-22T08:07:27;10.73;;;5.47;;
6852;SDS011;3465;42.144;24.722;2022-07-22T08:09:53;10.10;;;5.93;;
6852;SDS011;3465;42.144;24.722;2022-07-22T08:12:19;9.73;;;5.80;;
6852;SDS011;3465;42.144;24.722;2022-07-22T08:14:44;8.02;;;5.63;;
6852;SDS011;3465;42.144;24.722;2022-07-22T08:17:10;10.50;;;5.75;;
6852;SDS011;3465;42.144;24.722;2022-07-22T08:19:35;12.65;;;6.55;;
6852;SDS011;3465;42.144;24.722;2022-07-22T08:22:01;10.30;;;6.07;;
6852;SDS011;3465;42.144;24.722;2022-07-22T08:24:26;10.15;;;5.80;;
6852;SDS011;3465;42.144;24.722;2022-07-22T08:26:52;13.02;;;5.93;;
6852;SDS011;3465;42.144;24.722;2022-07-22T08:29:17;15.52;;;5.63;;
6852;SDS011;3465;42.144;24.722;2022-07-22T08:31:43;13.05;;;6.10;;
6852;SDS011;3465;42.144;24.722;2022-07-22T08:34:08;11.52;;;6.03;;
6852;SDS011;3465;42.144;24.722;2022-07-22T08:36:34;14.10;;;6.63;;
6852;SDS011;3465;42.144;24.722;2022-07-22T08:38:59;8.82;;;6.22;;
6852;SDS011;3465;42.144;24.722;2022-07-22T08:41:25;10.43;;;5.18;;
6852;SDS011;3465;42.144;24.722;2022-07-22T08:43:50;16.67;;;5.95;;
6852;SDS011;3465;42.144;24.722;2022-07-22T08:46:17;11.48;;;5.78;;
6852;SDS011;3465;42.144;24.722;2022-07-22T08:48:42;11.50;;;5.90;;
6852;SDS011;3465;42.144;24.722;2022-07-22T08:51:08;12.48;;;4.63;;
6852;SDS011;3465;42.144;24.722;2022-07-22T08:53:34;8.20;;;4.75;;
6852;SDS011;3465;42.144;24.722;2022-07-22T08:55:59;9.25;;;4.55;;
6852;SDS011;3465;42.144;24.722;2022-07-22T08:58:25;14.23;;;4.93;;
6852;SDS011;3465;42.144;24.722;2022-07-22T09:01:10;9.60;;;4.97;;
6852;SDS011;3465;42.144;24.722;2022-07-22T09:03:48;10.30;;;5.00;;
6852;SDS011;3465;42.144;24.722;2022-07-22T09:06:18;11.57;;;5.18;;
6852;SDS011;3465;42.144;24.722;2022-07-22T09:11:28;11.77;;;4.88;;
6852;SDS011;3465;42.144;24.722;2022-07-22T09:13:55;11.75;;;5.07;;
6852;SDS011;3465;42.144;24.722;2022-07-22T09:16:44;7.75;;;4.78;;
6852;SDS011;3465;42.144;24.722;2022-07-22T09:19:12;9.00;;;5.00;;
6852;SDS011;3465;42.144;24.722;2022-07-22T09:21:39;9.30;;;4.75;;
6852;SDS011;3465;42.144;24.722;2022-07-22T09:24:07;11.57;;;4.82;;
6852;SDS011;3465;42.144;24.722;2022-07-22T09:29:02;14.48;;;5.82;;
6852;SDS011;3465;42.144;24.722;2022-07-22T09:31:34;13.57;;;5.25;;
6852;SDS011;3465;42.144;24.722;2022-07-22T09:34:02;20.00;;;5.82;;
6852;SDS011;3465;42.144;24.722;2022-07-22T09:36:28;9.13;;;5.05;;
6852;SDS011;3465;42.144;24.722;2022-07-22T09:38:55;8.68;;;4.78;;
6852;SDS011;3465;42.144;24.722;2022-07-22T09:41:21;13.35;;;5.13;;
6852;SDS011;3465;42.144;24.722;2022-07-22T09:43:47;11.32;;;5.70;;
6852;SDS011;3465;42.144;24.722;2022-07-22T09:46:13;10.88;;;5.40;;
6852;SDS011;3465;42.144;24.722;2022-07-22T09:48:39;12.57;;;5.35;;
6852;SDS011;3465;42.144;24.722;2022-07-22T09:51:05;14.50;;;6.38;;
6852;SDS011;3465;42.144;24.722;2022-07-22T09:53:31;9.70;;;5.70;;
6852;SDS011;3465;42.144;24.722;2022-07-22T09:55:57;13.77;;;6.47;;
6852;SDS011;3465;42.144;24.722;2022-07-22T09:58:24;11.52;;;6.50;;
6852;SDS011;3465;42.144;24.722;2022-07-22T10:00:50;12.65;;;6.93;;
6852;SDS011;3465;42.144;24.722;2022-07-22T10:03:19;13.43;;;6.75;;
6852;SDS011;3465;42.144;24.722;2022-07-22T10:05:50;12.93;;;6.85;;
6852;SDS011;3465;42.144;24.722;2022-07-22T10:08:16;14.30;;;7.53;;
6852;SDS011;3465;42.144;24.722;2022-07-22T10:10:42;12.93;;;7.25;;
6852;SDS011;3465;42.144;24.722;2022-07-22T10:13:08;14.68;;;7.68;;
6852;SDS011;3465;42.144;24.722;2022-07-22T10:15:34;17.02;;;7.38;;
6852;SDS011;3465;42.144;24.722;2022-07-22T10:18:02;14.18;;;8.32;;
6852;SDS011;3465;42.144;24.722;2022-07-22T10:20:31;13.70;;;8.13;;
6852;SDS011;3465;42.144;24.722;2022-07-22T10:25:27;14.52;;;7.78;;
6852;SDS011;3465;42.144;24.722;2022-07-22T10:28:02;14.27;;;8.40;;
6852;SDS011;3465;42.144;24.722;2022-07-22T10:30:31;12.25;;;8.57;;
6852;SDS011;3465;42.144;24.722;2022-07-22T10:33:02;16.48;;;7.50;;
6852;SDS011;3465;42.144;24.722;2022-07-22T10:38:25;11.68;;;7.45;;
6852;SDS011;3465;42.144;24.722;2022-07-22T10:40:57;14.93;;;7.55;;
6852;SDS011;3465;42.144;24.722;2022-07-22T10:43:25;14.80;;;7.88;;
6852;SDS011;3465;42.144;24.722;2022-07-22T10:49:06;10.07;;;6.65;;
6852;SDS011;3465;42.144;24.722;2022-07-22T11:01:19;12.10;;;7.47;;
6852;SDS011;3465;42.144;24.722;2022-07-22T11:03:48;12.82;;;7.28;;
6852;SDS011;3465;42.144;24.722;2022-07-22T11:06:15;10.75;;;7.13;;
6852;SDS011;3465;42.144;24.722;2022-07-22T11:08:41;10.98;;;6.25;;
6852;SDS011;3465;42.144;24.722;2022-07-22T11:11:08;11.57;;;6.03;;
6852;SDS011;3465;42.144;24.722;2022-07-22T11:13:34;14.45;;;6.35;;
6852;SDS011;3465;42.144;24.722;2022-07-22T11:18:52;9.65;;;6.40;;
6852;SDS011;3465;42.144;24.722;2022-07-22T11:21:20;11.77;;;6.47;;
6852;SDS011;3465;42.144;24.722;2022-07-22T11:23:48;10.60;;;5.82;;
6852;SDS011;3465;42.144;24.722;2022-07-22T11:26:16;10.13;;;5.32;;
6852;SDS011;3465;42.144;24.722;2022-07-22T11:28:43;9.57;;;4.55;;
6852;SDS011;3465;42.144;24.722;2022-07-22T11:31:10;7.07;;;4.53;;
6852;SDS011;3465;42.144;24.722;2022-07-22T11:33:39;9.95;;;4.20;;
6852;SDS011;3465;42.144;24.722;2022-07-22T11:36:06;10.70;;;4.75;;
6852;SDS011;3465;42.144;24.722;2022-07-22T11:38:45;9.50;;;4.35;;
6852;SDS011;3465;42.144;24.722;2022-07-22T11:41:13;7.05;;;4.88;;
6852;SDS011;3465;42.144;24.722;2022-07-22T11:43:40;10.25;;;4.50;;
6852;SDS011;3465;42.144;24.722;2022-07-22T11:46:13;7.85;;;4.55;;
6852;SDS011;3465;42.144;24.722;2022-07-22T11:48:41;11.57;;;4.97;;
6852;SDS011;3465;42.144;24.722;2022-07-22T11:51:08;9.65;;;4.28;;
6852;SDS011;3465;42.144;24.722;2022-07-22T11:53:35;11.85;;;4.00;;
6852;SDS011;3465;42.144;24.722;2022-07-22T11:56:02;8.57;;;4.50;;
6852;SDS011;3465;42.144;24.722;2022-07-22T11:58:48;7.60;;;4.35;;
6852;SDS011;3465;42.144;24.722;2022-07-22T12:01:15;7.97;;;4.40;;
6852;SDS011;3465;42.144;24.722;2022-07-22T12:03:45;10.80;;;4.40;;
6852;SDS011;3465;42.144;24.722;2022-07-22T12:06:14;5.85;;;4.05;;
6852;SDS011;3465;42.144;24.722;2022-07-22T12:08:42;6.20;;;4.20;;
6852;SDS011;3465;42.144;24.722;2022-07-22T12:11:10;12.07;;;4.32;;
6852;SDS011;3465;42.144;24.722;2022-07-22T12:13:40;9.02;;;3.80;;
6852;SDS011;3465;42.144;24.722;2022-07-22T12:21:26;8.07;;;3.72;;
6852;SDS011;3465;42.144;24.722;2022-07-22T12:23:54;5.65;;;3.50;;
6852;SDS011;3465;42.144;24.722;2022-07-22T12:31:45;6.68;;;3.28;;
6852;SDS011;3465;42.144;24.722;2022-07-22T12:37:13;6.43;;;3.78;;
6852;SDS011;3465;42.144;24.722;2022-07-22T12:39:53;7.88;;;3.63;;
6852;SDS011;3465;42.144;24.722;2022-07-22T12:42:27;6.57;;;3.30;;
6852;SDS011;3465;42.144;24.722;2022-07-22T12:45:08;6.38;;;3.08;;
6852;SDS011;3465;42.144;24.722;2022-07-22T12:47:40;9.25;;;3.30;;
6852;SDS011;3465;42.144;24.722;2022-07-22T12:50:20;8.00;;;3.40;;
6852;SDS011;3465;42.144;24.722;2022-07-22T12:52:50;11.52;;;3.50;;
6852;SDS011;3465;42.144;24.722;2022-07-22T12:55:17;6.85;;;3.45;;
6852;SDS011;3465;42.144;24.722;2022-07-22T12:57:43;6.82;;;2.92;;
6852;SDS011;3465;42.144;24.722;2022-07-22T13:00:09;7.38;;;2.90;;
6852;SDS011;3465;42.144;24.722;2022-07-22T13:02:36;9.02;;;3.55;;
6852;SDS011;3465;42.144;24.722;2022-07-22T13:05:01;5.85;;;3.03;;
6852;SDS011;3465;42.144;24.722;2022-07-22T13:07:27;5.70;;;3.13;;
6852;SDS011;3465;42.144;24.722;2022-07-22T13:09:52;4.88;;;3.17;;
6852;SDS011;3465;42.144;24.722;2022-07-22T13:12:18;5.63;;;3.08;;
6852;SDS011;3465;42.144;24.722;2022-07-22T13:14:43;5.90;;;3.42;;
6852;SDS011;3465;42.144;24.722;2022-07-22T13:17:08;6.88;;;3.17;;
6852;SDS011;3465;42.144;24.722;2022-07-22T13:19:34;5.82;;;2.92;;
6852;SDS011;3465;42.144;24.722;2022-07-22T13:21:59;6.80;;;3.00;;
6852;SDS011;3465;42.144;24.722;2022-07-22T13:24:25;7.28;;;3.20;;
6852;SDS011;3465;42.144;24.722;2022-07-22T13:26:50;4.18;;;3.10;;
6852;SDS011;3465;42.144;24.722;2022-07-22T13:29:16;6.47;;;2.85;;
6852;SDS011;3465;42.144;24.722;2022-07-22T13:31:42;6.20;;;3.50;;
6852;SDS011;3465;42.144;24.722;2022-07-22T13:34:07;8.32;;;3.10;;
6852;SDS011;3465;42.144;24.722;2022-07-22T13:36:33;4.38;;;3.17;;
6852;SDS011;3465;42.144;24.722;2022-07-22T13:38:59;5.88;;;3.70;;
6852;SDS011;3465;42.144;24.722;2022-07-22T13:41:26;8.57;;;3.35;;
6852;SDS011;3465;42.144;24.722;2022-07-22T13:43:52;5.40;;;3.15;;
6852;SDS011;3465;42.144;24.722;2022-07-22T13:46:18;8.55;;;3.42;;
6852;SDS011;3465;42.144;24.722;2022-07-22T13:48:44;4.65;;;3.22;;
6852;SDS011;3465;42.144;24.722;2022-07-22T13:51:12;5.88;;;3.15;;
6852;SDS011;3465;42.144;24.722;2022-07-22T13:53:39;4.75;;;2.72;;
6852;SDS011;3465;42.144;24.722;2022-07-22T13:56:05;6.47;;;3.50;;
6852;SDS011;3465;42.144;24.722;2022-07-22T13:58:32;4.32;;;3.42;;
6852;SDS011;3465;42.144;24.722;2022-07-22T14:00:58;7.68;;;3.13;;
6852;SDS011;3465;42.144;24.722;2022-07-22T14:03:23;8.90;;;3.50;;
6852;SDS011;3465;42.144;24.722;2022-07-22T14:05:49;10.43;;;3.28;;
6852;SDS011;3465;42.144;24.722;2022-07-22T14:08:14;8.70;;;3.92;;
6852;SDS011;3465;42.144;24.722;2022-07-22T14:10:40;8.85;;;3.33;;
6852;SDS011;3465;42.144;24.722;2022-07-22T14:13:05;6.30;;;3.53;;
6852;SDS011;3465;42.144;24.722;2022-07-22T14:15:31;9.82;;;3.92;;
6852;SDS011;3465;42.144;24.722;2022-07-22T14:17:57;5.63;;;3.17;;
6852;SDS011;3465;42.144;24.722;2022-07-22T14:20:23;6.45;;;3.30;;
6852;SDS011;3465;42.144;24.722;2022-07-22T14:22:48;8.50;;;3.20;;
6852;SDS011;3465;42.144;24.722;2022-07-22T14:25:13;6.13;;;3.33;;
6852;SDS011;3465;42.144;24.722;2022-07-22T14:27:39;8.68;;;3.50;;
6852;SDS011;3465;42.144;24.722;2022-07-22T14:30:04;6.70;;;3.50;;
6852;SDS011;3465;42.144;24.722;2022-07-22T14:32:30;12.15;;;3.88;;
6852;SDS011;3465;42.144;24.722;2022-07-22T14:34:56;4.28;;;3.33;;
6852;SDS011;3465;42.144;24.722;2022-07-22T14:37:21;8.93;;;3.03;;
6852;SDS011;3465;42.144;24.722;2022-07-22T14:39:47;5.80;;;3.20;;
6852;SDS011;3465;42.144;24.722;2022-07-22T14:42:12;4.20;;;2.95;;
6852;SDS011;3465;42.144;24.722;2022-07-22T14:44:38;7.70;;;3.50;;
6852;SDS011;3465;42.144;24.722;2022-07-22T14:47:03;9.00;;;3.40;;
6852;SDS011;3465;42.144;24.722;2022-07-22T14:49:29;9.48;;;4.22;;
6852;SDS011;3465;42.144;24.722;2022-07-22T14:51:54;10.50;;;3.88;;
6852;SDS011;3465;42.144;24.722;2022-07-22T14:54:20;11.75;;;3.50;;
6852;SDS011;3465;42.144;24.722;2022-07-22T14:56:45;8.57;;;3.55;;
6852;SDS011;3465;42.144;24.722;2022-07-22T14:59:11;5.40;;;3.85;;
6852;SDS011;3465;42.144;24.722;2022-07-22T15:01:36;6.07;;;3.33;;
6852;SDS011;3465;42.144;24.722;2022-07-22T15:04:01;5.53;;;3.50;;
6852;SDS011;3465;42.144;24.722;2022-07-22T15:06:27;8.35;;;3.50;;
6852;SDS011;3465;42.144;24.722;2022-07-22T15:08:53;5.53;;;3.13;;
6852;SDS011;3465;42.144;24.722;2022-07-22T15:11:18;8.35;;;3.10;;
6852;SDS011;3465;42.144;24.722;2022-07-22T15:13:44;8.32;;;3.58;;
6852;SDS011;3465;42.144;24.722;2022-07-22T15:16:09;8.32;;;3.70;;
6852;SDS011;3465;42.144;24.722;2022-07-22T15:18:35;9.38;;;3.58;;
6852;SDS011;3465;42.144;24.722;2022-07-22T15:21:01;4.10;;;3.03;;
6852;SDS011;3465;42.144;24.722;2022-07-22T15:23:27;7.82;;;3.38;;
6852;SDS011;3465;42.144;24.722;2022-07-22T15:25:54;7.72;;;3.70;;
6852;SDS011;3465;42.144;24.722;2022-07-22T15:28:20;6.88;;;3.72;;
6852;SDS011;3465;42.144;24.722;2022-07-22T15:30:46;5.00;;;3.17;;